Change the Weather History Date:

Monday, January 2, 2012

  Actual Average Record
Temperature  
Mean Temperature 24 °F -  
Max Temperature 29 °F 29 °F 62 °F (2004)
Min Temperature 19 °F 13 °F -16 °F (1979)
Degree Days  
Heating Degree Days 40    
Moisture  
Dew Point 14 °F    
Average Humidity 62    
Maximum Humidity 76    
Minimum Humidity 44    
Precipitation  
Precipitation 0.00 in - - ()
Sea Level Pressure  
Sea Level Pressure 30.26 in    
Wind  
Wind Speed 21 mph (NW)    
Max Wind Speed 29 mph    
Max Gust Speed 38 mph    
Visibility 10 miles    
Events Snow    
Averages and records for this station are not official NWS values.
T = Trace of Precipitation, MM = Missing Value Source: NWS Daily Summary

Daily Weather History Graph

Daily Weather History Graph

Search for Another Location

Airport or City:

Trip Planner

Search our weather history database for the weather conditions in past years. The results will help you decide how hot, cold, wet, or windy it might be!

Date:

Astronomy

Jan. 02, 2012 Rise Set
Actual Time 7:22 AM CST 4:38 PM CST
Civil Twilight 6:51 AM CST 5:09 PM CST
Nautical Twilight 6:16 AM CST 5:44 PM CST
Astronomical Twilight 5:43 AM CST 6:17 PM CST
Moon 11:56 AM CST (1/2) 1:13 AM CST (1/2)
Length of Visible Light 10h 18m
Length of Day
9h 15m
Waxing Gibbous, 64% of the Moon is Illuminated
Jan 2
Waxing Gibbous
Jan 9
Full
Jan 16
Last Quarter
Jan 23
New
Jan 30
First Quarter

Hourly Weather History & Observations

Time (CST) Temp. Windchill Dew Point Humidity Pressure Visibility Wind Dir Wind Speed Gust Speed Precip Events Conditions
12:15 AM 29.8 °F 17.3 °F 19.4 °F 65% 30.14 in 10.0 mi WNW 19.6 mph 32.2 mph N/A   Overcast
12:35 AM 29.3 °F 14.7 °F 18.7 °F 65% 30.14 in 10.0 mi WNW 26.5 mph 35.7 mph N/A   Overcast
1:15 AM 28.4 °F 15.4 °F 19.4 °F 69% 30.14 in 10.0 mi WNW 19.6 mph 33.4 mph N/A   Overcast
1:35 AM 28.4 °F 14.1 °F 19.4 °F 69% 30.15 in 10.0 mi WNW 24.2 mph 31.1 mph N/A Snow Light Snow
1:55 AM 28.2 °F 14.8 °F 18.9 °F 68% 30.15 in 10.0 mi WNW 20.7 mph 31.1 mph N/A Snow Light Snow
2:15 AM 27.7 °F 13.8 °F 19.9 °F 73% 30.16 in 7.0 mi WNW 21.9 mph 28.8 mph N/A Snow Light Snow
2:35 AM 26.6 °F 11.1 °F 18.0 °F 70% 30.16 in 10.0 mi NW 26.5 mph 36.8 mph N/A Snow Light Snow
2:55 AM 26.4 °F 10.6 °F 16.0 °F 65% 30.16 in 10.0 mi WNW 27.6 mph 38.0 mph N/A   Overcast
3:35 AM 24.8 °F 8.4 °F 14.9 °F 66% 30.17 in 10.0 mi WNW 27.6 mph 36.8 mph N/A   Scattered Clouds
4:15 AM 25.5 °F 9.1 °F 14.9 °F 64% 30.16 in 10.0 mi NW 28.8 mph 38.0 mph N/A   Overcast
4:35 AM 25.3 °F 10.0 °F 14.9 °F 65% 30.17 in 10.0 mi NW 24.2 mph 33.4 mph N/A   Overcast
4:55 AM 25.7 °F 11.9 °F 15.6 °F 66% 30.17 in 10.0 mi NW 19.6 mph 27.6 mph N/A   Overcast
5:15 AM 25.3 °F 11.8 °F 18.7 °F 76% 30.17 in 4.0 mi WNW 18.4 mph 25.3 mph N/A Snow Light Snow
5:35 AM 25.2 °F 9.5 °F 17.2 °F 72% 30.17 in 10.0 mi NW 25.3 mph 31.1 mph N/A   Overcast
5:55 AM 25.5 °F 10.6 °F 15.6 °F 66% 30.18 in 10.0 mi WNW 23.0 mph 32.2 mph N/A   Overcast
6:15 AM 25.5 °F 11.3 °F 15.8 °F 67% 30.18 in 10.0 mi WNW 20.7 mph 32.2 mph N/A Snow Light Snow
6:35 AM 25.5 °F 10.0 °F 16.3 °F 68% 30.18 in 10.0 mi WNW 25.3 mph 31.1 mph N/A Snow Light Snow
6:55 AM 25.3 °F 10.7 °F 16.9 °F 70% 30.19 in 10.0 mi NW 21.9 mph 28.8 mph N/A   Overcast
7:15 AM 25.3 °F 8.9 °F 14.9 °F 65% 30.19 in 10.0 mi NW 28.8 mph 35.7 mph N/A   Overcast
7:35 AM 24.8 °F 10.3 °F 17.1 °F 72% 30.19 in 10.0 mi NW 20.7 mph 26.5 mph N/A Snow Light Snow
7:55 AM 25.2 °F 10.8 °F 16.2 °F 69% 30.20 in 10.0 mi NW 20.7 mph 27.6 mph N/A   Overcast
8:15 AM 25.3 °F 10.7 °F 14.5 °F 64% 30.21 in 10.0 mi NW 21.9 mph 31.1 mph N/A   Overcast
8:35 AM 25.7 °F 10.5 °F 14.5 °F 63% 30.22 in 10.0 mi NW 24.2 mph 33.4 mph N/A   Overcast
8:55 AM 26.6 °F 12.0 °F 14.0 °F 59% 30.23 in 10.0 mi NW 23.0 mph 29.9 mph N/A   Overcast
9:15 AM 25.5 °F 10.6 °F 14.4 °F 63% 30.24 in 10.0 mi NNW 23.0 mph 29.9 mph N/A   Overcast
9:35 AM 26.6 °F 12.0 °F 12.7 °F 56% 30.25 in 10.0 mi NW 23.0 mph 31.1 mph N/A   Overcast
9:55 AM 26.6 °F 11.7 °F 14.0 °F 59% 30.25 in 10.0 mi NNW 24.2 mph 34.5 mph N/A   Overcast
10:15 AM 26.1 °F 11.6 °F 14.0 °F 60% 30.25 in 5.0 mi NW 21.9 mph 28.8 mph N/A   Haze
10:35 AM 26.6 °F 11.4 °F 11.5 °F 53% 30.25 in 10.0 mi NNW 25.3 mph 33.4 mph N/A   Overcast
10:55 AM 27.5 °F 11.8 °F 9.9 °F 48% 30.25 in 10.0 mi NNW 28.8 mph 35.7 mph N/A   Overcast
11:15 AM 27.5 °F 13.9 °F 12.7 °F 54% 30.24 in 10.0 mi NW 20.7 mph 31.1 mph N/A   Overcast
11:35 AM 26.2 °F 11.2 °F 14.0 °F 60% 30.25 in 4.0 mi NNW 24.2 mph 32.2 mph N/A   Haze
11:55 AM 26.6 °F 13.4 °F 14.7 °F 61% 30.24 in 10.0 mi NNW 18.4 mph - N/A   Overcast
12:15 PM 26.6 °F 12.4 °F 14.0 °F 59% 30.25 in 10.0 mi NNW 21.9 mph 31.1 mph N/A   Overcast
12:35 PM 26.2 °F 10.9 °F 14.4 °F 61% 30.25 in 10.0 mi NNW 25.3 mph 33.4 mph N/A   Overcast
1:15 PM 26.6 °F 12.0 °F 7.3 °F 44% 30.25 in 10.0 mi NNW 23.0 mph 32.2 mph N/A   Overcast
1:55 PM 26.4 °F 11.2 °F 8.1 °F 46% 30.27 in 10.0 mi NW 25.3 mph 32.2 mph N/A   Overcast
2:35 PM 25.5 °F 10.9 °F 10.2 °F 52% 30.29 in 10.0 mi NNW 21.9 mph 29.9 mph N/A   Mostly Cloudy
3:15 PM 25.3 °F 10.3 °F 11.3 °F 55% 30.31 in 10.0 mi NNW 23.0 mph - N/A   Overcast
3:35 PM 25.3 °F 10.3 °F 11.5 °F 56% 30.32 in 10.0 mi NNW 23.0 mph 27.6 mph N/A   Overcast
3:55 PM 25.3 °F 9.7 °F 11.3 °F 55% 30.33 in 10.0 mi NNW 25.3 mph 28.8 mph N/A   Overcast
4:15 PM 25.3 °F 11.4 °F 11.5 °F 56% 30.34 in 10.0 mi NNW 19.6 mph 25.3 mph N/A   Overcast
4:35 PM 25.3 °F 11.8 °F 11.3 °F 55% 30.35 in 10.0 mi NW 18.4 mph 28.8 mph N/A   Overcast
4:55 PM 25.3 °F 13.1 °F 10.9 °F 54% 30.36 in 10.0 mi NNW 15.0 mph 25.3 mph N/A   Overcast
5:15 PM 25.5 °F 12.0 °F 10.8 °F 54% 30.37 in 10.0 mi NNW 18.4 mph - N/A   Overcast
5:35 PM 25.3 °F 13.1 °F 11.3 °F 55% 30.38 in 10.0 mi NNW 15.0 mph 23.0 mph N/A   Overcast
5:55 PM 24.8 °F 12.4 °F 11.8 °F 58% 30.38 in 10.0 mi NNW 15.0 mph - N/A   Overcast
6:15 PM 24.8 °F 12.4 °F 11.8 °F 58% 30.38 in 10.0 mi NNW 15.0 mph 19.6 mph N/A   Overcast
6:35 PM 24.8 °F 14.6 °F 12.2 °F 59% 30.39 in 10.0 mi NNW 10.4 mph - N/A   Overcast
6:55 PM 24.4 °F 14.9 °F 12.6 °F 61% 30.40 in 10.0 mi NNW 9.2 mph - N/A   Overcast
7:15 PM 23.9 °F 14.2 °F 13.1 °F 63% 30.40 in 10.0 mi NNW 9.2 mph - N/A   Overcast
7:35 PM 23.0 °F 12.4 °F 12.6 °F 64% 30.41 in 10.0 mi NNW 10.4 mph - N/A   Scattered Clouds
7:55 PM 21.9 °F 12.5 °F 12.7 °F 68% 30.41 in 10.0 mi NNW 8.1 mph - N/A   Clear
8:15 PM 21.0 °F 12.4 °F 12.9 °F 71% 30.41 in 10.0 mi NNW 6.9 mph - N/A   Clear
8:35 PM 21.4 °F 13.8 °F 12.9 °F 70% 30.42 in 10.0 mi NNW 5.8 mph - N/A   Clear
8:55 PM 20.7 °F 13.0 °F 12.4 °F 70% 30.42 in 10.0 mi NNW 5.8 mph - N/A   Clear
9:15 PM 19.4 °F 12.8 °F 12.0 °F 73% 30.41 in 10.0 mi NNW 4.6 mph - N/A   Clear
9:35 PM 19.2 °F 12.5 °F 11.7 °F 72% 30.42 in 10.0 mi NW 4.6 mph - N/A   Clear
9:55 PM 18.1 °F 7.1 °F 11.7 °F 76% 30.43 in 10.0 mi NW 9.2 mph - N/A   Clear
10:15 PM 18.5 °F 8.4 °F 11.8 °F 75% 30.43 in 10.0 mi NW 8.1 mph - N/A   Clear
10:35 PM 18.3 °F 6.6 °F 11.8 °F 76% 30.43 in 10.0 mi NW 10.4 mph - N/A   Clear
10:55 PM 18.0 °F 7.7 °F 11.5 °F 76% 30.43 in 10.0 mi NW 8.1 mph - N/A   Clear
11:15 PM 17.6 °F 8.2 °F 11.3 °F 76% 30.43 in 10.0 mi NW 6.9 mph - N/A   Clear
11:35 PM 18.3 °F 9.1 °F 11.3 °F 74% 30.44 in 10.0 mi NW 6.9 mph - N/A   Clear